sensor_id;sensor_type;location;lat;lon;timestamp;pressure;altitude;pressure_sealevel;temperature;humidity
9235;BME280;4652;42.716;23.218;2023-05-20T00:00:30;95136.84;;;11.07;100.00
9235;BME280;4652;42.716;23.218;2023-05-20T00:07:12;95131.88;;;10.96;100.00
9235;BME280;4652;42.716;23.218;2023-05-20T00:13:55;95135.50;;;10.81;100.00
9235;BME280;4652;42.716;23.218;2023-05-20T00:20:37;95124.00;;;10.71;100.00
9235;BME280;4652;42.716;23.218;2023-05-20T00:27:19;95124.41;;;10.54;100.00
9235;BME280;4652;42.716;23.218;2023-05-20T00:47:29;95132.78;;;10.03;nan
9235;BME280;4652;42.716;23.218;2023-05-20T00:54:14;95112.34;;;9.97;nan
9235;BME280;4652;42.716;23.218;2023-05-20T01:18:40;95105.16;;;10.37;100.00
9235;BME280;4652;42.716;23.218;2023-05-20T01:25:25;95082.31;;;9.80;100.00
9235;BME280;4652;42.716;23.218;2023-05-20T01:32:10;95099.66;;;10.08;100.00
9235;BME280;4652;42.716;23.218;2023-05-20T01:38:55;95108.78;;;10.17;100.00
9235;BME280;4652;42.716;23.218;2023-05-20T01:45:42;95100.16;;;10.20;100.00
9235;BME280;4652;42.716;23.218;2023-05-20T01:52:24;95102.88;;;10.15;100.00
9235;BME280;4652;42.716;23.218;2023-05-20T01:59:06;95089.97;;;10.07;100.00
9235;BME280;4652;42.716;23.218;2023-05-20T02:05:50;95088.66;;;10.04;100.00
9235;BME280;4652;42.716;23.218;2023-05-20T02:12:32;95090.88;;;9.92;100.00
9235;BME280;4652;42.716;23.218;2023-05-20T02:19:14;95096.91;;;9.74;100.00
9235;BME280;4652;42.716;23.218;2023-05-20T02:26:04;95095.59;;;9.62;100.00
9235;BME280;4652;42.716;23.218;2023-05-20T02:32:46;95092.75;;;9.38;100.00
9235;BME280;4652;42.716;23.218;2023-05-20T02:39:28;95098.69;;;9.35;100.00
9235;BME280;4652;42.716;23.218;2023-05-20T02:46:11;95099.50;;;9.35;100.00
9235;BME280;4652;42.716;23.218;2023-05-20T02:52:53;95097.56;;;9.46;100.00
9235;BME280;4652;42.716;23.218;2023-05-20T02:59:35;95099.59;;;9.74;100.00
9235;BME280;4652;42.716;23.218;2023-05-20T03:06:18;95110.91;;;9.71;100.00
9235;BME280;4652;42.716;23.218;2023-05-20T03:13:00;95112.22;;;9.74;100.00
9235;BME280;4652;42.716;23.218;2023-05-20T03:19:42;95113.19;;;9.93;100.00
9235;BME280;4652;42.716;23.218;2023-05-20T03:26:26;95115.03;;;9.97;100.00
9235;BME280;4652;42.716;23.218;2023-05-20T03:33:07;95112.31;;;10.13;100.00
9235;BME280;4652;42.716;23.218;2023-05-20T03:39:50;95124.06;;;10.27;100.00
9235;BME280;4652;42.716;23.218;2023-05-20T03:46:33;95120.25;;;10.33;100.00
9235;BME280;4652;42.716;23.218;2023-05-20T03:53:15;95124.66;;;10.52;100.00
9235;BME280;4652;42.716;23.218;2023-05-20T03:59:59;95114.81;;;10.77;100.00
9235;BME280;4652;42.716;23.218;2023-05-20T04:06:43;95135.09;;;11.21;100.00
9235;BME280;4652;42.716;23.218;2023-05-20T04:13:25;95134.00;;;11.51;100.00
9235;BME280;4652;42.716;23.218;2023-05-20T04:20:08;95137.94;;;11.59;100.00
9235;BME280;4652;42.716;23.218;2023-05-20T04:26:52;95122.81;;;11.87;100.00
9235;BME280;4652;42.716;23.218;2023-05-20T04:33:34;95127.13;;;12.44;100.00
9235;BME280;4652;42.716;23.218;2023-05-20T04:40:17;95130.44;;;12.91;100.00
9235;BME280;4652;42.716;23.218;2023-05-20T04:47:02;95126.25;;;13.31;100.00
9235;BME280;4652;42.716;23.218;2023-05-20T04:53:43;95110.13;;;13.40;100.00
9235;BME280;4652;42.716;23.218;2023-05-20T05:00:25;95124.38;;;14.00;100.00
9235;BME280;4652;42.716;23.218;2023-05-20T05:07:08;95116.69;;;14.65;100.00
9235;BME280;4652;42.716;23.218;2023-05-20T05:13:50;95117.59;;;14.74;100.00
9235;BME280;4652;42.716;23.218;2023-05-20T05:20:32;95122.47;;;14.86;100.00
9235;BME280;4652;42.716;23.218;2023-05-20T05:27:16;95087.91;;;15.00;100.00
9235;BME280;4652;42.716;23.218;2023-05-20T05:33:58;95112.78;;;15.46;100.00
9235;BME280;4652;42.716;23.218;2023-05-20T05:40:40;95091.69;;;15.91;100.00
9235;BME280;4652;42.716;23.218;2023-05-20T05:47:23;95111.28;;;16.36;100.00
9235;BME280;4652;42.716;23.218;2023-05-20T05:54:09;95083.66;;;16.85;100.00
9235;BME280;4652;42.716;23.218;2023-05-20T06:00:51;95084.28;;;16.99;100.00
9235;BME280;4652;42.716;23.218;2023-05-20T06:07:35;95089.28;;;17.44;100.00
9235;BME280;4652;42.716;23.218;2023-05-20T06:14:17;95080.81;;;18.42;100.00
9235;BME280;4652;42.716;23.218;2023-05-20T06:20:59;95082.75;;;20.69;76.44
9235;BME280;4652;42.716;23.218;2023-05-20T06:27:43;95071.66;;;24.19;56.90
9235;BME280;4652;42.716;23.218;2023-05-20T06:34:24;95065.09;;;27.60;48.34
9235;BME280;4652;42.716;23.218;2023-05-20T06:41:06;95043.38;;;28.75;47.19
9235;BME280;4652;42.716;23.218;2023-05-20T06:54:33;95031.66;;;30.57;nan
9235;BME280;4652;42.716;23.218;2023-05-20T07:45:24;95041.22;;;24.61;51.90
9235;BME280;4652;42.716;23.218;2023-05-20T07:52:06;95033.53;;;24.47;50.66
9235;BME280;4652;42.716;23.218;2023-05-20T07:58:51;95036.13;;;23.87;50.15
9235;BME280;4652;42.716;23.218;2023-05-20T08:05:37;95032.50;;;23.38;51.42
9235;BME280;4652;42.716;23.218;2023-05-20T08:12:19;95013.63;;;23.82;53.01
9235;BME280;4652;42.716;23.218;2023-05-20T08:19:01;95023.72;;;22.91;53.91
9235;BME280;4652;42.716;23.218;2023-05-20T08:25:44;95015.59;;;22.98;53.98
9235;BME280;4652;42.716;23.218;2023-05-20T08:32:27;95020.13;;;22.87;53.94
9235;BME280;4652;42.716;23.218;2023-05-20T08:39:09;95010.97;;;23.21;54.29
9235;BME280;4652;42.716;23.218;2023-05-20T08:45:53;95013.31;;;22.80;54.98
9235;BME280;4652;42.716;23.218;2023-05-20T08:52:36;95011.16;;;23.31;53.70
9235;BME280;4652;42.716;23.218;2023-05-20T08:59:18;95000.84;;;23.25;53.73
9235;BME280;4652;42.716;23.218;2023-05-20T09:06:06;94998.63;;;23.34;53.61
9235;BME280;4652;42.716;23.218;2023-05-20T09:12:48;95003.19;;;22.85;52.97
9235;BME280;4652;42.716;23.218;2023-05-20T09:19:32;94978.59;;;22.34;54.07
9235;BME280;4652;42.716;23.218;2023-05-20T09:26:16;94985.91;;;22.11;54.37
9235;BME280;4652;42.716;23.218;2023-05-20T09:33:00;94985.13;;;22.30;54.04
9235;BME280;4652;42.716;23.218;2023-05-20T09:39:54;94980.75;;;22.25;55.11
9235;BME280;4652;42.716;23.218;2023-05-20T09:46:40;94998.16;;;22.52;54.79
9235;BME280;4652;42.716;23.218;2023-05-20T09:53:25;94975.34;;;23.05;54.88
9235;BME280;4652;42.716;23.218;2023-05-20T10:00:08;94968.19;;;22.62;55.55
9235;BME280;4652;42.716;23.218;2023-05-20T10:14:21;94937.28;;;22.85;53.04
9235;BME280;4652;42.716;23.218;2023-05-20T10:21:14;94933.94;;;22.95;52.97
9235;BME280;4652;42.716;23.218;2023-05-20T10:28:05;94920.03;;;23.07;53.79
9235;BME280;4652;42.716;23.218;2023-05-20T10:34:50;94924.59;;;23.41;52.26
9235;BME280;4652;42.716;23.218;2023-05-20T10:41:32;94915.50;;;23.18;52.89
9235;BME280;4652;42.716;23.218;2023-05-20T10:48:22;94906.03;;;22.93;52.34
9235;BME280;4652;42.716;23.218;2023-05-20T10:55:18;94886.06;;;22.96;53.21
9235;BME280;4652;42.716;23.218;2023-05-20T11:02:00;94890.47;;;22.58;53.73
9235;BME280;4652;42.716;23.218;2023-05-20T11:08:43;94879.53;;;23.04;50.20
9235;BME280;4652;42.716;23.218;2023-05-20T11:15:26;94876.78;;;23.26;50.37
9235;BME280;4652;42.716;23.218;2023-05-20T11:22:10;94865.56;;;23.12;51.03
9235;BME280;4652;42.716;23.218;2023-05-20T11:28:52;94866.38;;;23.13;51.36
9235;BME280;4652;42.716;23.218;2023-05-20T11:35:35;94844.94;;;22.76;52.88
9235;BME280;4652;42.716;23.218;2023-05-20T11:42:17;94842.06;;;23.15;51.69
9235;BME280;4652;42.716;23.218;2023-05-20T11:49:00;94847.28;;;22.55;51.70
9235;BME280;4652;42.716;23.218;2023-05-20T11:55:48;94830.88;;;22.59;53.45
9235;BME280;4652;42.716;23.218;2023-05-20T12:02:30;94830.81;;;23.01;54.32
9235;BME280;4652;42.716;23.218;2023-05-20T12:09:12;94807.13;;;22.47;52.98
9235;BME280;4652;42.716;23.218;2023-05-20T12:15:57;94777.16;;;22.80;53.02
9235;BME280;4652;42.716;23.218;2023-05-20T12:22:38;94769.94;;;22.08;52.65
9235;BME280;4652;42.716;23.218;2023-05-20T12:29:21;94809.75;;;22.21;53.97
9235;BME280;4652;42.716;23.218;2023-05-20T12:36:05;94820.09;;;22.28;52.49
9235;BME280;4652;42.716;23.218;2023-05-20T12:42:48;94833.19;;;21.80;54.01
9235;BME280;4652;42.716;23.218;2023-05-20T12:49:30;94833.84;;;21.39;54.39
9235;BME280;4652;42.716;23.218;2023-05-20T21:38:48;94822.41;;;14.73;100.00
9235;BME280;4652;42.716;23.218;2023-05-20T21:45:30;94820.59;;;14.59;100.00
9235;BME280;4652;42.716;23.218;2023-05-20T21:52:12;94813.66;;;14.36;100.00
9235;BME280;4652;42.716;23.218;2023-05-20T21:58:56;94815.66;;;14.31;100.00
9235;BME280;4652;42.716;23.218;2023-05-20T22:05:38;94807.06;;;13.98;100.00
9235;BME280;4652;42.716;23.218;2023-05-20T22:12:20;94802.88;;;13.61;100.00
9235;BME280;4652;42.716;23.218;2023-05-20T22:19:03;94796.81;;;13.56;100.00
9235;BME280;4652;42.716;23.218;2023-05-20T22:25:45;94782.44;;;13.11;100.00
9235;BME280;4652;42.716;23.218;2023-05-20T22:32:27;94787.47;;;12.90;100.00
9235;BME280;4652;42.716;23.218;2023-05-20T22:39:10;94748.16;;;12.48;100.00
9235;BME280;4652;42.716;23.218;2023-05-20T22:45:52;94784.50;;;12.78;100.00
9235;BME280;4652;42.716;23.218;2023-05-20T22:52:34;94787.56;;;12.85;100.00
9235;BME280;4652;42.716;23.218;2023-05-20T22:59:18;94766.47;;;12.73;100.00
9235;BME280;4652;42.716;23.218;2023-05-20T23:06:00;94751.50;;;12.67;100.00
9235;BME280;4652;42.716;23.218;2023-05-20T23:12:43;94748.69;;;12.72;100.00
9235;BME280;4652;42.716;23.218;2023-05-20T23:19:26;94727.16;;;12.81;100.00
9235;BME280;4652;42.716;23.218;2023-05-20T23:26:08;94739.22;;;12.97;100.00
9235;BME280;4652;42.716;23.218;2023-05-20T23:32:50;94726.00;;;12.60;100.00
9235;BME280;4652;42.716;23.218;2023-05-20T23:39:33;94723.16;;;12.43;100.00
9235;BME280;4652;42.716;23.218;2023-05-20T23:46:15;94694.13;;;12.34;100.00
9235;BME280;4652;42.716;23.218;2023-05-20T23:52:58;94715.75;;;12.21;100.00
9235;BME280;4652;42.716;23.218;2023-05-20T23:59:41;94697.56;;;12.13;100.00
